sensor_id;sensor_type;location;lat;lon;timestamp;P1;durP1;ratioP1;P2;durP2;ratioP2
74833;SDS011;63361;52.384;20.930;2023-04-27T00:00:46;28.30;;;10.93;;
74833;SDS011;63361;52.384;20.930;2023-04-27T00:03:12;30.70;;;9.40;;
74833;SDS011;63361;52.384;20.930;2023-04-27T00:05:37;26.40;;;9.77;;
74833;SDS011;63361;52.384;20.930;2023-04-27T00:08:06;31.83;;;9.90;;
74833;SDS011;63361;52.384;20.930;2023-04-27T00:10:32;34.80;;;10.73;;
74833;SDS011;63361;52.384;20.930;2023-04-27T00:12:57;29.73;;;9.43;;
74833;SDS011;63361;52.384;20.930;2023-04-27T00:15:23;39.33;;;10.63;;
74833;SDS011;63361;52.384;20.930;2023-04-27T00:17:48;34.70;;;10.20;;
74833;SDS011;63361;52.384;20.930;2023-04-27T00:20:14;34.47;;;10.37;;
74833;SDS011;63361;52.384;20.930;2023-04-27T00:22:39;37.00;;;10.33;;
74833;SDS011;63361;52.384;20.930;2023-04-27T00:25:05;30.95;;;9.82;;
74833;SDS011;63361;52.384;20.930;2023-04-27T00:27:31;25.92;;;9.43;;
74833;SDS011;63361;52.384;20.930;2023-04-27T00:29:57;28.77;;;9.47;;
74833;SDS011;63361;52.384;20.930;2023-04-27T00:32:22;31.13;;;9.93;;
74833;SDS011;63361;52.384;20.930;2023-04-27T00:34:47;30.07;;;9.40;;
74833;SDS011;63361;52.384;20.930;2023-04-27T00:37:13;25.73;;;9.40;;
74833;SDS011;63361;52.384;20.930;2023-04-27T00:39:38;25.83;;;9.40;;
74833;SDS011;63361;52.384;20.930;2023-04-27T00:42:03;30.80;;;9.55;;
74833;SDS011;63361;52.384;20.930;2023-04-27T00:44:29;27.37;;;9.17;;
74833;SDS011;63361;52.384;20.930;2023-04-27T00:46:55;20.45;;;7.57;;
74833;SDS011;63361;52.384;20.930;2023-04-27T00:49:22;26.33;;;8.90;;
74833;SDS011;63361;52.384;20.930;2023-04-27T00:51:48;25.25;;;8.93;;
74833;SDS011;63361;52.384;20.930;2023-04-27T00:54:18;21.20;;;7.97;;
74833;SDS011;63361;52.384;20.930;2023-04-27T00:56:44;18.55;;;7.80;;
74833;SDS011;63361;52.384;20.930;2023-04-27T00:59:11;25.05;;;8.45;;
74833;SDS011;63361;52.384;20.930;2023-04-27T01:01:37;18.77;;;7.70;;
74833;SDS011;63361;52.384;20.930;2023-04-27T01:04:02;21.90;;;8.17;;
74833;SDS011;63361;52.384;20.930;2023-04-27T01:06:27;18.57;;;7.20;;
74833;SDS011;63361;52.384;20.930;2023-04-27T01:08:53;19.60;;;7.53;;
74833;SDS011;63361;52.384;20.930;2023-04-27T01:11:19;22.00;;;7.35;;
74833;SDS011;63361;52.384;20.930;2023-04-27T01:13:45;22.88;;;7.22;;
74833;SDS011;63361;52.384;20.930;2023-04-27T01:16:11;21.50;;;8.17;;
74833;SDS011;63361;52.384;20.930;2023-04-27T01:18:36;18.17;;;6.90;;
74833;SDS011;63361;52.384;20.930;2023-04-27T01:21:01;20.50;;;7.73;;
74833;SDS011;63361;52.384;20.930;2023-04-27T01:23:27;20.90;;;7.90;;
74833;SDS011;63361;52.384;20.930;2023-04-27T01:25:52;22.67;;;7.97;;
74833;SDS011;63361;52.384;20.930;2023-04-27T01:28:18;17.53;;;6.77;;
74833;SDS011;63361;52.384;20.930;2023-04-27T01:30:43;17.33;;;6.83;;
74833;SDS011;63361;52.384;20.930;2023-04-27T01:33:08;20.10;;;7.53;;
74833;SDS011;63361;52.384;20.930;2023-04-27T01:35:34;18.40;;;6.43;;
74833;SDS011;63361;52.384;20.930;2023-04-27T01:37:59;20.47;;;7.00;;
74833;SDS011;63361;52.384;20.930;2023-04-27T01:40:25;16.05;;;6.82;;
74833;SDS011;63361;52.384;20.930;2023-04-27T01:42:50;13.80;;;6.47;;
74833;SDS011;63361;52.384;20.930;2023-04-27T01:45:15;17.77;;;7.17;;
74833;SDS011;63361;52.384;20.930;2023-04-27T01:47:41;18.53;;;7.20;;
74833;SDS011;63361;52.384;20.930;2023-04-27T01:50:06;14.38;;;6.63;;
74833;SDS011;63361;52.384;20.930;2023-04-27T01:52:32;15.93;;;6.73;;
74833;SDS011;63361;52.384;20.930;2023-04-27T01:54:57;14.33;;;7.40;;
74833;SDS011;63361;52.384;20.930;2023-04-27T01:57:22;16.37;;;6.27;;
74833;SDS011;63361;52.384;20.930;2023-04-27T01:59:49;16.75;;;6.55;;
74833;SDS011;63361;52.384;20.930;2023-04-27T02:02:14;17.50;;;6.10;;
74833;SDS011;63361;52.384;20.930;2023-04-27T02:04:40;12.77;;;5.77;;
74833;SDS011;63361;52.384;20.930;2023-04-27T02:07:07;16.63;;;6.13;;
74833;SDS011;63361;52.384;20.930;2023-04-27T02:09:32;15.13;;;6.55;;
74833;SDS011;63361;52.384;20.930;2023-04-27T02:11:58;13.90;;;6.40;;
74833;SDS011;63361;52.384;20.930;2023-04-27T02:14:23;14.93;;;6.03;;
74833;SDS011;63361;52.384;20.930;2023-04-27T02:16:48;44.83;;;8.07;;
74833;SDS011;63361;52.384;20.930;2023-04-27T02:19:13;17.07;;;6.20;;
74833;SDS011;63361;52.384;20.930;2023-04-27T02:21:39;14.13;;;6.50;;
74833;SDS011;63361;52.384;20.930;2023-04-27T02:24:05;16.67;;;6.47;;
74833;SDS011;63361;52.384;20.930;2023-04-27T02:26:30;12.90;;;6.13;;
74833;SDS011;63361;52.384;20.930;2023-04-27T02:28:56;12.85;;;6.07;;
74833;SDS011;63361;52.384;20.930;2023-04-27T02:31:21;11.20;;;6.07;;
74833;SDS011;63361;52.384;20.930;2023-04-27T02:33:47;10.80;;;5.73;;
74833;SDS011;63361;52.384;20.930;2023-04-27T02:36:12;14.30;;;6.50;;
74833;SDS011;63361;52.384;20.930;2023-04-27T02:38:37;13.75;;;6.40;;
74833;SDS011;63361;52.384;20.930;2023-04-27T02:41:03;13.03;;;6.03;;
74833;SDS011;63361;52.384;20.930;2023-04-27T02:43:28;14.27;;;6.23;;
74833;SDS011;63361;52.384;20.930;2023-04-27T02:45:53;13.83;;;6.90;;
74833;SDS011;63361;52.384;20.930;2023-04-27T02:48:19;16.33;;;7.50;;
74833;SDS011;63361;52.384;20.930;2023-04-27T02:50:44;33.63;;;7.37;;
74833;SDS011;63361;52.384;20.930;2023-04-27T02:53:10;13.15;;;7.63;;
74833;SDS011;63361;52.384;20.930;2023-04-27T02:55:36;18.90;;;7.93;;
74833;SDS011;63361;52.384;20.930;2023-04-27T02:58:02;17.27;;;7.10;;
74833;SDS011;63361;52.384;20.930;2023-04-27T03:00:28;13.82;;;7.05;;
74833;SDS011;63361;52.384;20.930;2023-04-27T03:02:53;15.90;;;7.40;;
74833;SDS011;63361;52.384;20.930;2023-04-27T03:05:19;16.23;;;7.78;;
74833;SDS011;63361;52.384;20.930;2023-04-27T03:07:44;15.80;;;7.90;;
74833;SDS011;63361;52.384;20.930;2023-04-27T03:10:09;20.60;;;7.77;;
74833;SDS011;63361;52.384;20.930;2023-04-27T03:12:35;15.60;;;7.27;;
74833;SDS011;63361;52.384;20.930;2023-04-27T03:15:00;30.83;;;7.53;;
74833;SDS011;63361;52.384;20.930;2023-04-27T03:17:26;31.77;;;7.90;;
74833;SDS011;63361;52.384;20.930;2023-04-27T03:19:52;16.20;;;8.00;;
74833;SDS011;63361;52.384;20.930;2023-04-27T03:22:17;16.80;;;8.60;;
74833;SDS011;63361;52.384;20.930;2023-04-27T03:24:43;16.77;;;8.90;;
74833;SDS011;63361;52.384;20.930;2023-04-27T03:27:08;17.03;;;8.47;;
74833;SDS011;63361;52.384;20.930;2023-04-27T03:29:34;64.65;;;34.97;;
74833;SDS011;63361;52.384;20.930;2023-04-27T03:31:59;63.10;;;32.53;;
74833;SDS011;63361;52.384;20.930;2023-04-27T03:34:24;44.60;;;24.57;;
74833;SDS011;63361;52.384;20.930;2023-04-27T03:36:50;25.57;;;13.43;;
74833;SDS011;63361;52.384;20.930;2023-04-27T03:39:15;22.23;;;10.20;;
74833;SDS011;63361;52.384;20.930;2023-04-27T03:41:41;21.70;;;11.88;;
74833;SDS011;63361;52.384;20.930;2023-04-27T03:44:06;22.77;;;10.67;;
74833;SDS011;63361;52.384;20.930;2023-04-27T03:46:32;17.13;;;8.53;;
74833;SDS011;63361;52.384;20.930;2023-04-27T03:48:58;19.75;;;9.18;;
74833;SDS011;63361;52.384;20.930;2023-04-27T03:51:23;18.97;;;8.17;;
74833;SDS011;63361;52.384;20.930;2023-04-27T03:53:48;18.23;;;7.67;;
74833;SDS011;63361;52.384;20.930;2023-04-27T03:56:14;39.97;;;8.13;;
74833;SDS011;63361;52.384;20.930;2023-04-27T03:58:39;14.03;;;7.00;;
74833;SDS011;63361;52.384;20.930;2023-04-27T04:01:05;17.23;;;8.07;;
74833;SDS011;63361;52.384;20.930;2023-04-27T04:03:30;15.10;;;6.57;;
74833;SDS011;63361;52.384;20.930;2023-04-27T04:05:56;14.98;;;6.45;;
74833;SDS011;63361;52.384;20.930;2023-04-27T04:08:21;13.97;;;7.27;;
74833;SDS011;63361;52.384;20.930;2023-04-27T04:10:46;14.57;;;6.07;;
74833;SDS011;63361;52.384;20.930;2023-04-27T04:13:12;11.60;;;5.27;;
74833;SDS011;63361;52.384;20.930;2023-04-27T04:15:37;12.80;;;5.73;;
74833;SDS011;63361;52.384;20.930;2023-04-27T04:18:03;15.25;;;5.70;;
74833;SDS011;63361;52.384;20.930;2023-04-27T04:20:28;12.10;;;5.80;;
74833;SDS011;63361;52.384;20.930;2023-04-27T04:22:53;14.10;;;6.10;;
74833;SDS011;63361;52.384;20.930;2023-04-27T04:25:19;14.03;;;6.03;;
74833;SDS011;63361;52.384;20.930;2023-04-27T04:27:44;12.10;;;6.07;;
74833;SDS011;63361;52.384;20.930;2023-04-27T04:30:12;12.40;;;6.67;;
74833;SDS011;63361;52.384;20.930;2023-04-27T04:32:37;16.55;;;6.70;;
74833;SDS011;63361;52.384;20.930;2023-04-27T04:35:06;13.20;;;6.07;;
74833;SDS011;63361;52.384;20.930;2023-04-27T04:37:32;17.90;;;6.53;;
74833;SDS011;63361;52.384;20.930;2023-04-27T04:40:05;13.48;;;6.53;;
74833;SDS011;63361;52.384;20.930;2023-04-27T04:42:37;15.67;;;6.70;;
74833;SDS011;63361;52.384;20.930;2023-04-27T04:45:02;17.85;;;6.65;;
74833;SDS011;63361;52.384;20.930;2023-04-27T04:47:28;15.55;;;6.50;;
74833;SDS011;63361;52.384;20.930;2023-04-27T04:49:58;14.32;;;6.50;;
74833;SDS011;63361;52.384;20.930;2023-04-27T04:52:23;14.40;;;6.40;;
74833;SDS011;63361;52.384;20.930;2023-04-27T04:54:52;13.35;;;5.75;;
74833;SDS011;63361;52.384;20.930;2023-04-27T04:57:17;11.90;;;6.33;;
74833;SDS011;63361;52.384;20.930;2023-04-27T04:59:43;15.27;;;6.10;;
74833;SDS011;63361;52.384;20.930;2023-04-27T05:02:08;14.43;;;6.17;;
74833;SDS011;63361;52.384;20.930;2023-04-27T05:04:33;14.17;;;6.20;;
74833;SDS011;63361;52.384;20.930;2023-04-27T05:06:59;14.43;;;6.07;;
74833;SDS011;63361;52.384;20.930;2023-04-27T05:09:24;13.48;;;6.30;;
74833;SDS011;63361;52.384;20.930;2023-04-27T05:11:50;13.83;;;6.10;;
74833;SDS011;63361;52.384;20.930;2023-04-27T05:14:15;12.07;;;5.87;;
74833;SDS011;63361;52.384;20.930;2023-04-27T05:16:41;12.83;;;6.30;;
74833;SDS011;63361;52.384;20.930;2023-04-27T05:19:06;14.40;;;6.13;;
74833;SDS011;63361;52.384;20.930;2023-04-27T05:21:32;14.43;;;6.67;;
74833;SDS011;63361;52.384;20.930;2023-04-27T05:23:58;16.70;;;6.40;;
74833;SDS011;63361;52.384;20.930;2023-04-27T05:26:23;14.03;;;6.30;;
74833;SDS011;63361;52.384;20.930;2023-04-27T05:28:49;12.63;;;6.40;;
74833;SDS011;63361;52.384;20.930;2023-04-27T05:31:15;13.55;;;6.22;;
74833;SDS011;63361;52.384;20.930;2023-04-27T05:33:40;12.93;;;5.43;;
74833;SDS011;63361;52.384;20.930;2023-04-27T05:36:05;10.23;;;6.00;;
74833;SDS011;63361;52.384;20.930;2023-04-27T05:38:31;13.82;;;5.80;;
74833;SDS011;63361;52.384;20.930;2023-04-27T05:40:58;13.93;;;6.28;;
74833;SDS011;63361;52.384;20.930;2023-04-27T05:43:24;15.50;;;6.27;;
74833;SDS011;63361;52.384;20.930;2023-04-27T05:45:50;17.83;;;7.38;;
74833;SDS011;63361;52.384;20.930;2023-04-27T05:48:16;14.38;;;6.05;;
74833;SDS011;63361;52.384;20.930;2023-04-27T05:50:42;15.13;;;5.73;;
74833;SDS011;63361;52.384;20.930;2023-04-27T05:53:07;12.97;;;6.10;;
74833;SDS011;63361;52.384;20.930;2023-04-27T05:55:33;12.32;;;6.38;;
74833;SDS011;63361;52.384;20.930;2023-04-27T05:57:58;11.50;;;5.57;;
74833;SDS011;63361;52.384;20.930;2023-04-27T06:00:25;14.18;;;6.35;;
74833;SDS011;63361;52.384;20.930;2023-04-27T06:02:50;12.00;;;5.97;;
74833;SDS011;63361;52.384;20.930;2023-04-27T06:05:15;13.37;;;6.20;;
74833;SDS011;63361;52.384;20.930;2023-04-27T06:07:41;11.77;;;6.13;;
74833;SDS011;63361;52.384;20.930;2023-04-27T06:10:11;15.50;;;8.15;;
74833;SDS011;63361;52.384;20.930;2023-04-27T06:12:36;36.08;;;28.95;;
74833;SDS011;63361;52.384;20.930;2023-04-27T06:15:02;15.82;;;7.22;;
74833;SDS011;63361;52.384;20.930;2023-04-27T06:17:32;12.60;;;5.80;;
74833;SDS011;63361;52.384;20.930;2023-04-27T06:20:01;9.60;;;5.30;;
74833;SDS011;63361;52.384;20.930;2023-04-27T06:22:30;16.20;;;6.75;;
74833;SDS011;63361;52.384;20.930;2023-04-27T06:24:56;14.07;;;6.05;;
74833;SDS011;63361;52.384;20.930;2023-04-27T06:27:21;15.73;;;7.10;;
74833;SDS011;63361;52.384;20.930;2023-04-27T06:29:47;39.47;;;32.07;;
74833;SDS011;63361;52.384;20.930;2023-04-27T06:32:12;15.67;;;8.77;;
74833;SDS011;63361;52.384;20.930;2023-04-27T06:34:37;10.87;;;6.50;;
74833;SDS011;63361;52.384;20.930;2023-04-27T06:37:03;12.77;;;5.60;;
74833;SDS011;63361;52.384;20.930;2023-04-27T06:39:28;10.97;;;5.33;;
74833;SDS011;63361;52.384;20.930;2023-04-27T06:41:53;14.23;;;5.20;;
74833;SDS011;63361;52.384;20.930;2023-04-27T06:44:19;11.17;;;4.87;;
74833;SDS011;63361;52.384;20.930;2023-04-27T06:46:44;12.07;;;5.50;;
74833;SDS011;63361;52.384;20.930;2023-04-27T06:49:09;12.00;;;5.83;;
74833;SDS011;63361;52.384;20.930;2023-04-27T06:51:35;12.13;;;5.80;;
74833;SDS011;63361;52.384;20.930;2023-04-27T06:54:01;11.68;;;6.22;;
74833;SDS011;63361;52.384;20.930;2023-04-27T06:56:26;18.43;;;7.90;;
74833;SDS011;63361;52.384;20.930;2023-04-27T06:58:51;12.27;;;5.20;;
74833;SDS011;63361;52.384;20.930;2023-04-27T07:01:17;11.87;;;4.90;;
74833;SDS011;63361;52.384;20.930;2023-04-27T07:03:42;13.20;;;8.30;;
74833;SDS011;63361;52.384;20.930;2023-04-27T07:06:07;14.37;;;5.47;;
74833;SDS011;63361;52.384;20.930;2023-04-27T07:08:33;10.17;;;4.97;;
74833;SDS011;63361;52.384;20.930;2023-04-27T07:10:58;14.70;;;5.23;;
74833;SDS011;63361;52.384;20.930;2023-04-27T07:13:24;9.60;;;5.20;;
74833;SDS011;63361;52.384;20.930;2023-04-27T07:15:55;9.63;;;5.00;;
74833;SDS011;63361;52.384;20.930;2023-04-27T07:18:24;10.90;;;5.40;;
74833;SDS011;63361;52.384;20.930;2023-04-27T07:20:52;13.48;;;5.40;;
74833;SDS011;63361;52.384;20.930;2023-04-27T07:23:17;12.23;;;5.05;;
74833;SDS011;63361;52.384;20.930;2023-04-27T07:25:42;16.53;;;10.40;;
74833;SDS011;63361;52.384;20.930;2023-04-27T07:28:09;12.13;;;5.15;;
74833;SDS011;63361;52.384;20.930;2023-04-27T07:30:34;10.17;;;3.70;;
74833;SDS011;63361;52.384;20.930;2023-04-27T07:33:01;9.13;;;3.63;;
74833;SDS011;63361;52.384;20.930;2023-04-27T07:35:26;12.00;;;3.40;;
74833;SDS011;63361;52.384;20.930;2023-04-27T07:37:52;8.52;;;3.30;;
74833;SDS011;63361;52.384;20.930;2023-04-27T07:40:17;10.70;;;3.63;;
74833;SDS011;63361;52.384;20.930;2023-04-27T07:42:43;9.23;;;3.43;;
74833;SDS011;63361;52.384;20.930;2023-04-27T07:45:10;8.82;;;3.55;;
74833;SDS011;63361;52.384;20.930;2023-04-27T07:47:36;8.70;;;2.83;;
74833;SDS011;63361;52.384;20.930;2023-04-27T07:50:01;7.53;;;2.20;;
74833;SDS011;63361;52.384;20.930;2023-04-27T07:52:28;7.47;;;2.38;;
74833;SDS011;63361;52.384;20.930;2023-04-27T07:54:54;7.20;;;2.70;;
74833;SDS011;63361;52.384;20.930;2023-04-27T07:57:19;8.95;;;3.10;;
74833;SDS011;63361;52.384;20.930;2023-04-27T07:59:45;9.00;;;2.87;;
74833;SDS011;63361;52.384;20.930;2023-04-27T08:02:11;7.22;;;2.10;;
74833;SDS011;63361;52.384;20.930;2023-04-27T08:04:36;7.97;;;2.80;;
74833;SDS011;63361;52.384;20.930;2023-04-27T08:07:02;7.17;;;2.60;;
74833;SDS011;63361;52.384;20.930;2023-04-27T08:09:27;6.63;;;2.53;;
74833;SDS011;63361;52.384;20.930;2023-04-27T08:11:52;9.67;;;2.77;;
74833;SDS011;63361;52.384;20.930;2023-04-27T08:14:18;8.80;;;2.80;;
74833;SDS011;63361;52.384;20.930;2023-04-27T08:16:43;8.98;;;2.97;;
74833;SDS011;63361;52.384;20.930;2023-04-27T08:19:09;8.43;;;2.57;;
74833;SDS011;63361;52.384;20.930;2023-04-27T08:21:35;6.70;;;2.05;;
74833;SDS011;63361;52.384;20.930;2023-04-27T08:24:02;5.57;;;2.30;;
74833;SDS011;63361;52.384;20.930;2023-04-27T08:26:28;5.20;;;2.13;;
74833;SDS011;63361;52.384;20.930;2023-04-27T08:28:53;5.55;;;2.17;;
74833;SDS011;63361;52.384;20.930;2023-04-27T08:31:20;4.77;;;1.57;;
74833;SDS011;63361;52.384;20.930;2023-04-27T08:33:46;5.80;;;2.20;;
74833;SDS011;63361;52.384;20.930;2023-04-27T08:36:11;5.87;;;2.43;;
74833;SDS011;63361;52.384;20.930;2023-04-27T08:38:36;8.80;;;2.27;;
74833;SDS011;63361;52.384;20.930;2023-04-27T08:41:02;7.60;;;2.13;;
74833;SDS011;63361;52.384;20.930;2023-04-27T08:43:31;5.87;;;1.80;;
74833;SDS011;63361;52.384;20.930;2023-04-27T08:45:57;8.80;;;2.40;;
74833;SDS011;63361;52.384;20.930;2023-04-27T08:48:23;7.40;;;1.93;;
74833;SDS011;63361;52.384;20.930;2023-04-27T08:50:49;7.85;;;2.33;;
74833;SDS011;63361;52.384;20.930;2023-04-27T08:53:18;7.13;;;2.30;;
74833;SDS011;63361;52.384;20.930;2023-04-27T08:55:45;10.23;;;2.47;;
74833;SDS011;63361;52.384;20.930;2023-04-27T08:58:11;10.75;;;2.53;;
74833;SDS011;63361;52.384;20.930;2023-04-27T09:00:37;7.43;;;2.73;;
74833;SDS011;63361;52.384;20.930;2023-04-27T09:03:06;6.63;;;2.13;;
74833;SDS011;63361;52.384;20.930;2023-04-27T09:05:33;7.03;;;2.30;;
74833;SDS011;63361;52.384;20.930;2023-04-27T09:07:59;6.40;;;2.30;;
74833;SDS011;63361;52.384;20.930;2023-04-27T09:10:26;5.15;;;2.20;;
74833;SDS011;63361;52.384;20.930;2023-04-27T09:12:54;6.13;;;2.40;;
74833;SDS011;63361;52.384;20.930;2023-04-27T09:15:20;5.70;;;2.50;;
74833;SDS011;63361;52.384;20.930;2023-04-27T09:17:45;6.57;;;2.60;;
74833;SDS011;63361;52.384;20.930;2023-04-27T09:20:11;6.93;;;2.23;;
74833;SDS011;63361;52.384;20.930;2023-04-27T09:22:42;5.82;;;2.70;;
74833;SDS011;63361;52.384;20.930;2023-04-27T09:25:08;7.33;;;2.70;;
74833;SDS011;63361;52.384;20.930;2023-04-27T09:27:36;5.47;;;2.60;;
74833;SDS011;63361;52.384;20.930;2023-04-27T09:30:10;5.50;;;2.13;;
74833;SDS011;63361;52.384;20.930;2023-04-27T09:32:37;6.68;;;1.80;;
74833;SDS011;63361;52.384;20.930;2023-04-27T09:35:02;5.60;;;1.80;;
74833;SDS011;63361;52.384;20.930;2023-04-27T09:37:39;8.65;;;2.38;;
74833;SDS011;63361;52.384;20.930;2023-04-27T09:40:05;6.55;;;2.60;;
74833;SDS011;63361;52.384;20.930;2023-04-27T09:42:31;7.73;;;2.10;;
74833;SDS011;63361;52.384;20.930;2023-04-27T09:44:57;6.43;;;2.30;;
74833;SDS011;63361;52.384;20.930;2023-04-27T09:47:24;6.38;;;2.38;;
74833;SDS011;63361;52.384;20.930;2023-04-27T09:49:52;6.60;;;2.30;;
74833;SDS011;63361;52.384;20.930;2023-04-27T09:52:17;6.13;;;2.00;;
74833;SDS011;63361;52.384;20.930;2023-04-27T09:54:43;5.67;;;2.27;;
74833;SDS011;63361;52.384;20.930;2023-04-27T10:00:12;7.25;;;2.78;;
74833;SDS011;63361;52.384;20.930;2023-04-27T10:03:13;5.40;;;2.27;;
74833;SDS011;63361;52.384;20.930;2023-04-27T10:08:13;5.68;;;2.35;;
74833;SDS011;63361;52.384;20.930;2023-04-27T10:10:48;5.57;;;2.10;;
74833;SDS011;63361;52.384;20.930;2023-04-27T10:13:21;6.33;;;1.87;;
74833;SDS011;63361;52.384;20.930;2023-04-27T10:15:47;7.28;;;2.33;;
74833;SDS011;63361;52.384;20.930;2023-04-27T10:18:23;6.93;;;2.22;;
74833;SDS011;63361;52.384;20.930;2023-04-27T10:20:50;5.43;;;2.47;;
74833;SDS011;63361;52.384;20.930;2023-04-27T10:23:23;7.22;;;2.30;;
74833;SDS011;63361;52.384;20.930;2023-04-27T10:25:50;5.57;;;2.20;;
74833;SDS011;63361;52.384;20.930;2023-04-27T10:28:16;7.10;;;2.80;;
74833;SDS011;63361;52.384;20.930;2023-04-27T10:30:43;4.80;;;2.50;;
74833;SDS011;63361;52.384;20.930;2023-04-27T10:33:11;7.68;;;2.75;;
74833;SDS011;63361;52.384;20.930;2023-04-27T10:35:42;9.88;;;2.90;;
74833;SDS011;63361;52.384;20.930;2023-04-27T10:40:45;6.95;;;3.00;;
74833;SDS011;63361;52.384;20.930;2023-04-27T10:43:23;9.70;;;2.47;;
74833;SDS011;63361;52.384;20.930;2023-04-27T10:45:51;4.53;;;1.90;;
74833;SDS011;63361;52.384;20.930;2023-04-27T10:48:16;7.40;;;2.33;;
74833;SDS011;63361;52.384;20.930;2023-04-27T10:50:42;4.90;;;2.33;;
74833;SDS011;63361;52.384;20.930;2023-04-27T10:53:11;4.82;;;2.20;;
74833;SDS011;63361;52.384;20.930;2023-04-27T10:55:36;5.70;;;2.37;;
74833;SDS011;63361;52.384;20.930;2023-04-27T10:58:02;5.13;;;2.70;;
74833;SDS011;63361;52.384;20.930;2023-04-27T11:03:08;6.57;;;2.63;;
74833;SDS011;63361;52.384;20.930;2023-04-27T11:05:38;5.38;;;2.40;;
74833;SDS011;63361;52.384;20.930;2023-04-27T11:08:04;6.27;;;2.57;;
74833;SDS011;63361;52.384;20.930;2023-04-27T11:10:31;5.43;;;2.30;;
74833;SDS011;63361;52.384;20.930;2023-04-27T11:12:56;7.80;;;2.47;;
74833;SDS011;63361;52.384;20.930;2023-04-27T11:15:21;5.87;;;2.80;;
74833;SDS011;63361;52.384;20.930;2023-04-27T11:17:47;5.80;;;2.23;;
74833;SDS011;63361;52.384;20.930;2023-04-27T11:20:13;5.27;;;2.30;;
74833;SDS011;63361;52.384;20.930;2023-04-27T11:22:44;6.43;;;2.20;;
74833;SDS011;63361;52.384;20.930;2023-04-27T11:25:10;7.10;;;2.38;;
74833;SDS011;63361;52.384;20.930;2023-04-27T11:27:36;7.50;;;2.28;;
74833;SDS011;63361;52.384;20.930;2023-04-27T11:30:03;5.28;;;2.30;;
74833;SDS011;63361;52.384;20.930;2023-04-27T11:32:29;4.97;;;1.83;;
74833;SDS011;63361;52.384;20.930;2023-04-27T11:34:55;9.40;;;1.95;;
74833;SDS011;63361;52.384;20.930;2023-04-27T11:37:21;7.67;;;2.13;;
74833;SDS011;63361;52.384;20.930;2023-04-27T11:39:48;6.18;;;2.25;;
74833;SDS011;63361;52.384;20.930;2023-04-27T11:44:40;5.50;;;1.83;;
74833;SDS011;63361;52.384;20.930;2023-04-27T11:47:06;6.67;;;2.30;;
74833;SDS011;63361;52.384;20.930;2023-04-27T11:49:32;9.27;;;2.05;;
74833;SDS011;63361;52.384;20.930;2023-04-27T11:51:58;8.07;;;1.97;;
74833;SDS011;63361;52.384;20.930;2023-04-27T11:54:27;6.47;;;2.07;;
74833;SDS011;63361;52.384;20.930;2023-04-27T11:56:53;5.85;;;1.88;;
74833;SDS011;63361;52.384;20.930;2023-04-27T11:59:28;6.07;;;2.30;;
74833;SDS011;63361;52.384;20.930;2023-04-27T12:01:54;6.63;;;2.40;;
74833;SDS011;63361;52.384;20.930;2023-04-27T12:04:19;6.40;;;2.73;;
74833;SDS011;63361;52.384;20.930;2023-04-27T12:06:44;4.25;;;1.92;;
74833;SDS011;63361;52.384;20.930;2023-04-27T12:09:10;6.37;;;2.07;;
74833;SDS011;63361;52.384;20.930;2023-04-27T12:11:35;6.53;;;1.97;;
74833;SDS011;63361;52.384;20.930;2023-04-27T12:14:01;4.20;;;2.13;;
74833;SDS011;63361;52.384;20.930;2023-04-27T12:16:26;5.93;;;1.55;;
74833;SDS011;63361;52.384;20.930;2023-04-27T12:18:52;6.87;;;1.50;;
74833;SDS011;63361;52.384;20.930;2023-04-27T12:21:17;7.83;;;2.30;;
74833;SDS011;63361;52.384;20.930;2023-04-27T12:23:43;6.00;;;2.33;;
74833;SDS011;63361;52.384;20.930;2023-04-27T12:26:08;5.00;;;1.40;;
74833;SDS011;63361;52.384;20.930;2023-04-27T12:28:34;6.68;;;1.45;;
74833;SDS011;63361;52.384;20.930;2023-04-27T12:31:02;6.37;;;1.77;;
74833;SDS011;63361;52.384;20.930;2023-04-27T12:33:28;3.85;;;1.45;;
74833;SDS011;63361;52.384;20.930;2023-04-27T12:35:54;8.60;;;2.30;;
74833;SDS011;63361;52.384;20.930;2023-04-27T12:38:19;5.77;;;2.20;;
74833;SDS011;63361;52.384;20.930;2023-04-27T12:40:46;6.30;;;2.10;;
74833;SDS011;63361;52.384;20.930;2023-04-27T12:43:11;4.93;;;1.80;;
74833;SDS011;63361;52.384;20.930;2023-04-27T12:45:37;6.20;;;1.80;;
74833;SDS011;63361;52.384;20.930;2023-04-27T12:48:02;5.23;;;1.87;;
74833;SDS011;63361;52.384;20.930;2023-04-27T12:50:28;6.23;;;1.70;;
74833;SDS011;63361;52.384;20.930;2023-04-27T12:52:55;9.18;;;2.40;;
74833;SDS011;63361;52.384;20.930;2023-04-27T12:55:20;6.50;;;2.67;;
74833;SDS011;63361;52.384;20.930;2023-04-27T12:57:46;6.13;;;1.90;;
74833;SDS011;63361;52.384;20.930;2023-04-27T13:00:11;5.22;;;1.95;;
74833;SDS011;63361;52.384;20.930;2023-04-27T13:02:37;4.90;;;1.80;;
74833;SDS011;63361;52.384;20.930;2023-04-27T13:05:02;4.90;;;1.50;;
74833;SDS011;63361;52.384;20.930;2023-04-27T13:07:30;6.97;;;1.70;;
74833;SDS011;63361;52.384;20.930;2023-04-27T13:09:55;4.88;;;1.83;;
74833;SDS011;63361;52.384;20.930;2023-04-27T13:12:20;3.97;;;1.47;;
74833;SDS011;63361;52.384;20.930;2023-04-27T13:14:46;6.17;;;2.33;;
74833;SDS011;63361;52.384;20.930;2023-04-27T13:17:11;7.73;;;1.90;;
74833;SDS011;63361;52.384;20.930;2023-04-27T13:19:37;7.78;;;2.28;;
74833;SDS011;63361;52.384;20.930;2023-04-27T13:22:02;9.20;;;3.03;;
74833;SDS011;63361;52.384;20.930;2023-04-27T13:24:28;7.47;;;2.47;;
74833;SDS011;63361;52.384;20.930;2023-04-27T13:26:53;4.82;;;1.85;;
74833;SDS011;63361;52.384;20.930;2023-04-27T13:29:19;3.60;;;1.43;;
74833;SDS011;63361;52.384;20.930;2023-04-27T13:31:44;3.83;;;1.73;;
74833;SDS011;63361;52.384;20.930;2023-04-27T13:34:10;5.20;;;2.05;;
74833;SDS011;63361;52.384;20.930;2023-04-27T13:36:35;6.73;;;2.00;;
74833;SDS011;63361;52.384;20.930;2023-04-27T13:39:01;8.05;;;2.90;;
74833;SDS011;63361;52.384;20.930;2023-04-27T13:41:26;8.70;;;2.63;;
74833;SDS011;63361;52.384;20.930;2023-04-27T13:43:52;6.63;;;2.40;;
74833;SDS011;63361;52.384;20.930;2023-04-27T13:46:17;6.57;;;2.30;;
74833;SDS011;63361;52.384;20.930;2023-04-27T13:48:43;6.18;;;1.60;;
74833;SDS011;63361;52.384;20.930;2023-04-27T13:51:08;4.20;;;1.50;;
74833;SDS011;63361;52.384;20.930;2023-04-27T13:53:34;5.60;;;1.80;;
74833;SDS011;63361;52.384;20.930;2023-04-27T13:55:59;6.40;;;1.77;;
74833;SDS011;63361;52.384;20.930;2023-04-27T13:58:25;4.85;;;1.33;;
74833;SDS011;63361;52.384;20.930;2023-04-27T14:00:52;4.03;;;1.60;;
74833;SDS011;63361;52.384;20.930;2023-04-27T14:03:17;5.55;;;1.80;;
74833;SDS011;63361;52.384;20.930;2023-04-27T14:05:43;7.70;;;2.00;;
74833;SDS011;63361;52.384;20.930;2023-04-27T14:08:09;6.20;;;1.63;;
74833;SDS011;63361;52.384;20.930;2023-04-27T14:10:35;4.28;;;1.67;;
74833;SDS011;63361;52.384;20.930;2023-04-27T14:13:02;4.87;;;1.80;;
74833;SDS011;63361;52.384;20.930;2023-04-27T14:15:27;4.85;;;1.40;;
74833;SDS011;63361;52.384;20.930;2023-04-27T14:17:53;8.23;;;1.73;;
74833;SDS011;63361;52.384;20.930;2023-04-27T14:20:18;4.63;;;1.77;;
74833;SDS011;63361;52.384;20.930;2023-04-27T14:22:44;5.53;;;1.67;;
74833;SDS011;63361;52.384;20.930;2023-04-27T14:25:10;7.70;;;2.13;;
74833;SDS011;63361;52.384;20.930;2023-04-27T14:27:35;4.87;;;2.00;;
74833;SDS011;63361;52.384;20.930;2023-04-27T14:30:01;7.63;;;1.93;;
74833;SDS011;63361;52.384;20.930;2023-04-27T14:32:26;5.37;;;1.93;;